Time;durP1;ratioP1;P1;durP2;ratioP2;P2;SDS_P1;SDS_P2;PMS_P1;PMS_P2;Temp;Humidity;BMP_temperature;BMP_pressure;BME280_temperature;BME280_humidity;BME280_pressure;Samples;Min_cycle;Max_cycle;Signal;HPM_P1;HPM_P2
2023/12/10 00:23:49;;;;;;;5.32;1.10;;;;;;;5.47;100.00;92151.53;2093925;28;21542;-82
2023/12/10 00:24:50;;;;;;;8.90;1.30;;;;;;;5.42;100.00;92149.34;2094861;28;20040;-78
2023/12/10 00:25:51;;;;;;;8.98;1.77;;;;;;;5.33;100.00;92160.47;2080308;28;20956;-78
2023/12/10 00:26:52;;;;;;;7.00;1.63;;;;;;;5.25;100.00;92157.19;2076812;28;20029;-79
2023/12/10 00:27:52;;;;;;;8.20;2.13;;;;;;;5.35;100.00;92162.72;2093253;28;20057;-78
2023/12/10 00:28:53;;;;;;;9.18;1.80;;;;;;;5.23;100.00;92167.47;2076094;28;20580;-78
2023/12/10 00:29:54;;;;;;;14.52;2.00;;;;;;;5.37;100.00;92165.72;2079826;28;20029;-77
2023/12/10 00:30:55;;;;;;;10.43;2.10;;;;;;;5.35;100.00;92176.69;2084983;28;20894;-78
2023/12/10 00:31:56;;;;;;;15.95;1.90;;;;;;;5.30;100.00;92169.97;2079079;28;20576;-78
2023/12/10 00:32:57;;;;;;;7.10;1.50;;;;;;;5.51;100.00;92168.84;2085572;28;20049;-79
2023/12/10 00:33:58;;;;;;;11.20;1.92;;;;;;;5.44;100.00;92165.56;2094547;28;20029;-77
2023/12/10 00:34:59;;;;;;;12.82;3.00;;;;;;;5.30;100.00;92191.16;2093857;28;20024;-77
2023/12/10 00:36:00;;;;;;;9.80;1.73;;;;;;;5.43;100.00;92167.47;2094855;28;20036;-78
2023/12/10 00:37:01;;;;;;;17.08;1.95;;;;;;;5.49;100.00;92186.31;2095935;28;20024;-78
2023/12/10 00:38:02;;;;;;;13.70;2.00;;;;;;;5.49;100.00;92181.78;2094095;28;20552;-77
2023/12/10 00:39:05;;;;;;;10.13;2.05;;;;;;;5.38;100.00;92183.09;2091522;28;20029;-79
2023/12/10 00:40:06;;;;;;;15.27;2.20;;;;;;;5.44;100.00;92194.72;2088887;28;20021;-77
2023/12/10 00:41:09;;;;;;;17.55;2.25;;;;;;;5.40;100.00;92200.09;2080437;28;20021;-77
2023/12/10 00:42:10;;;;;;;14.88;2.28;;;;;;;5.41;100.00;92200.84;2084331;28;20040;-78
2023/12/10 00:43:12;;;;;;;10.95;2.03;;;;;;;5.38;100.00;92207.69;2094573;28;20028;-78
2023/12/10 00:44:13;;;;;;;9.40;2.55;;;;;;;5.32;100.00;92209.31;2093762;28;20052;-78
2023/12/10 00:45:14;;;;;;;11.13;2.17;;;;;;;5.48;100.00;92209.41;2085846;28;20021;-77
2023/12/10 00:46:15;;;;;;;14.43;2.35;;;;;;;5.50;100.00;92206.38;2076957;28;20022;-77
2023/12/10 00:47:16;;;;;;;13.77;2.45;;;;;;;5.34;100.00;92216.88;2084791;28;20501;-76
2023/12/10 00:48:17;;;;;;;11.10;2.70;;;;;;;5.45;100.00;92210.25;2095397;28;20074;-78
2023/12/10 00:49:18;;;;;;;10.57;1.65;;;;;;;5.54;100.00;92222.97;2083449;28;20037;-77
2023/12/10 00:50:19;;;;;;;13.07;2.45;;;;;;;5.37;100.00;92227.41;2077799;28;20021;-77
2023/12/10 00:51:21;;;;;;;13.27;2.67;;;;;;;5.43;100.00;92225.78;2088589;28;20414;-76
2023/12/10 00:52:22;;;;;;;8.15;1.58;;;;;;;5.46;100.00;92226.88;2087692;28;20086;-78
2023/12/10 00:53:23;;;;;;;12.05;2.15;;;;;;;5.50;100.00;92222.28;2079450;28;20029;-78
2023/12/10 00:54:32;;;;;;;10.05;2.15;;;;;;;5.41;100.00;92225.44;2089347;28;20952;-78
2023/12/10 00:55:33;;;;;;;9.90;1.60;;;;;;;5.51;100.00;92231.72;2088418;28;20024;-78
2023/12/10 00:56:34;;;;;;;9.77;2.08;;;;;;;5.36;100.00;92228.56;2080367;28;20029;-78
2023/12/10 00:57:35;;;;;;;12.20;1.92;;;;;;;5.29;100.00;92239.28;2080766;28;20092;-77
2023/12/10 00:58:36;;;;;;;12.10;2.63;;;;;;;5.29;100.00;92233.97;2082895;28;20012;-77
2023/12/10 00:59:37;;;;;;;16.80;2.53;;;;;;;5.23;100.00;92246.94;2080172;28;20110;-77
2023/12/10 01:00:38;;;;;;;13.45;2.03;;;;;;;5.24;100.00;92234.44;2087913;28;20024;-76
2023/12/10 01:01:39;;;;;;;12.30;1.80;;;;;;;5.10;100.00;92253.94;2094921;28;20410;-77
2023/12/10 01:02:40;;;;;;;10.27;1.98;;;;;;;5.12;100.00;92256.94;2093191;28;20021;-77
2023/12/10 01:03:41;;;;;;;11.75;1.77;;;;;;;5.19;100.00;92256.09;2082267;28;20021;-78
2023/12/10 01:04:42;;;;;;;11.40;2.03;;;;;;;5.24;100.00;92268.88;2088046;28;20020;-76
2023/12/10 01:05:43;;;;;;;11.15;2.33;;;;;;;5.36;100.00;92259.63;2080590;28;20393;-79
2023/12/10 01:06:46;;;;;;;9.65;1.92;;;;;;;5.25;100.00;92270.38;2081053;28;20025;-78
2023/12/10 01:07:47;;;;;;;17.38;2.47;;;;;;;5.14;100.00;92270.53;2093869;28;20024;-77
2023/12/10 01:08:48;;;;;;;11.90;2.33;;;;;;;5.37;100.00;92272.44;2093630;28;20067;-75
2023/12/10 01:09:49;;;;;;;8.20;2.03;;;;;;;5.40;100.00;92279.59;2097636;28;20063;-77
2023/12/10 01:10:50;;;;;;;11.02;2.03;;;;;;;5.37;100.00;92295.56;2091557;28;20048;-76
2023/12/10 01:11:51;;;;;;;11.85;2.25;;;;;;;5.28;100.00;92309.31;2097018;28;20025;-79
2023/12/10 01:12:52;;;;;;;8.73;1.67;;;;;;;5.26;100.00;92304.41;2097624;28;20571;-78
2023/12/10 01:13:53;;;;;;;11.20;2.22;;;;;;;5.26;100.00;92298.34;2086610;28;20024;-78
2023/12/10 01:15:01;;;;;;;12.90;2.40;;;;;;;5.15;100.00;92298.53;2087159;28;20072;-76
2023/12/10 01:16:04;;;;;;;8.93;1.80;;;;;;;5.19;100.00;92287.88;2097890;28;20020;-78
2023/12/10 01:17:05;;;;;;;9.40;1.80;;;;;;;5.21;100.00;92301.47;2088636;28;20029;-77
2023/12/10 01:18:06;;;;;;;7.38;1.60;;;;;;;5.23;100.00;92296.53;2086254;28;20035;-75
2023/12/10 01:19:07;;;;;;;15.57;2.10;;;;;;;5.14;100.00;92293.63;2080926;28;20108;-78
2023/12/10 01:20:08;;;;;;;10.27;1.83;;;;;;;5.13;100.00;92287.56;2083510;28;20032;-75
2023/12/10 01:21:09;;;;;;;13.02;2.42;;;;;;;5.17;100.00;92284.88;2080000;28;20033;-79
2023/12/10 01:22:10;;;;;;;13.48;2.00;;;;;;;5.17;100.00;92284.88;2077424;28;20049;-76
2023/12/10 01:23:11;;;;;;;10.93;1.88;;;;;;;5.29;100.00;92292.25;2084980;28;20094;-75
2023/12/10 01:24:18;;;;;;;10.52;1.73;;;;;;;5.23;100.00;92294.63;2088269;28;20091;-76
2023/12/10 01:25:19;;;;;;;13.25;1.75;;;;;;;5.39;100.00;92291.34;2093624;28;20059;-79
2023/12/10 01:26:21;;;;;;;10.90;2.67;;;;;;;5.30;100.00;92297.16;2088107;28;20024;-77
2023/12/10 01:27:22;;;;;;;8.90;1.73;;;;;;;5.29;100.00;92297.56;2091821;28;20021;-77
2023/12/10 01:28:23;;;;;;;12.60;1.88;;;;;;;5.25;100.00;92299.50;2088932;28;20736;-78
2023/12/10 01:29:25;;;;;;;10.45;1.65;;;;;;;5.28;100.00;92304.00;2092763;28;21677;-78
2023/12/10 01:30:26;;;;;;;11.57;1.65;;;;;;;5.32;100.00;92302.06;2090593;28;20029;-76
2023/12/10 01:31:34;;;;;;;9.55;1.73;;;;;;;5.39;100.00;92306.50;2083109;28;20067;-78
2023/12/10 01:32:35;;;;;;;11.63;2.13;;;;;;;5.21;100.00;92293.50;2089686;28;20092;-78
2023/12/10 01:33:36;;;;;;;15.52;2.78;;;;;;;5.09;100.00;92304.66;2090899;28;20473;-77
2023/12/10 01:34:37;;;;;;;10.90;1.70;;;;;;;5.08;100.00;92303.16;2096541;28;20021;-79
2023/12/10 01:35:38;;;;;;;12.93;2.20;;;;;;;5.25;100.00;92313.50;2105910;28;20496;-77
2023/12/10 01:36:40;;;;;;;8.93;2.28;;;;;;;5.38;100.00;92319.00;2113036;28;20080;-77
2023/12/10 01:37:41;;;;;;;12.20;2.80;;;;;;;5.46;100.00;92320.38;2109037;28;20502;-77
2023/12/10 01:38:42;;;;;;;16.23;2.55;;;;;;;5.40;100.00;92311.41;2103292;28;20082;-77
2023/12/10 01:39:43;;;;;;;15.90;2.58;;;;;;;5.32;100.00;92322.50;2090745;28;20055;-77
2023/12/10 01:40:43;;;;;;;15.18;2.22;;;;;;;5.33;100.00;92318.72;2105339;28;20016;-77
2023/12/10 01:41:44;;;;;;;12.65;2.30;;;;;;;5.35;100.00;92303.88;2114445;28;20050;-76
2023/12/10 01:42:46;;;;;;;11.52;2.55;;;;;;;5.33;100.00;92300.16;2096909;28;20027;-77
2023/12/10 01:43:47;;;;;;;14.13;2.25;;;;;;;5.10;100.00;92296.34;2093690;28;20489;-78
2023/12/10 01:44:48;;;;;;;18.58;2.00;;;;;;;4.98;100.00;92294.97;2102088;28;20016;-78
2023/12/10 01:45:53;;;;;;;11.48;2.20;;;;;;;5.07;100.00;92305.06;2111580;28;20408;-78
2023/12/10 01:46:55;;;;;;;10.98;2.10;;;;;;;5.24;100.00;92300.66;2097214;28;20016;-77
2023/12/10 01:47:57;;;;;;;11.48;2.13;;;;;;;5.18;100.00;92308.31;2086403;28;20749;-77
2023/12/10 01:48:59;;;;;;;12.38;2.30;;;;;;;5.09;100.00;92313.34;2097122;28;20020;-77
2023/12/10 01:50:04;;;;;;;13.98;2.15;;;;;;;5.08;100.00;92319.81;2097128;28;20020;-78
2023/12/10 01:51:08;;;;;;;12.02;2.15;;;;;;;5.07;100.00;92328.16;2094655;28;20031;-77
2023/12/10 01:52:09;;;;;;;11.35;1.75;;;;;;;5.01;100.00;92327.88;2102617;28;20028;-77
2023/12/10 01:53:10;;;;;;;15.35;2.40;;;;;;;5.22;100.00;92324.91;2097033;28;20111;-77
2023/12/10 01:54:20;;;;;;;14.38;2.25;;;;;;;5.05;100.00;92334.63;2101761;28;20096;-77
2023/12/10 01:55:21;;;;;;;11.30;2.05;;;;;;;5.01;100.00;92343.75;2107328;28;20051;-77
2023/12/10 01:56:22;;;;;;;13.45;2.70;;;;;;;5.00;100.00;92335.06;2112991;28;20080;-78
2023/12/10 01:57:24;;;;;;;11.40;1.70;;;;;;;5.09;100.00;92336.44;2107751;28;20107;-76
2023/12/10 01:58:27;;;;;;;10.82;2.17;;;;;;;4.89;100.00;92339.75;2097115;28;20028;-77
2023/12/10 01:59:29;;;;;;;12.48;2.20;;;;;;;5.19;100.00;92340.88;2103905;28;20392;-78
2023/12/10 02:00:30;;;;;;;12.52;2.15;;;;;;;5.11;100.00;92334.91;2114434;28;20066;-78
2023/12/10 02:01:32;;;;;;;14.88;2.53;;;;;;;5.10;100.00;92337.97;2105481;28;20074;-79
2023/12/10 02:02:35;;;;;;;9.52;2.08;;;;;;;5.11;100.00;92344.75;2105485;28;20487;-77
2023/12/10 02:03:36;;;;;;;13.60;2.20;;;;;;;4.95;100.00;92342.69;2114034;28;20073;-77
2023/12/10 02:04:37;;;;;;;10.32;1.83;;;;;;;5.01;100.00;92341.84;2114452;28;20062;-77
2023/12/10 02:05:38;;;;;;;7.65;1.58;;;;;;;4.87;100.00;92351.88;2114313;28;20031;-77
2023/12/10 02:06:39;;;;;;;13.02;1.85;;;;;;;5.07;100.00;92357.28;2114235;28;20038;-77
2023/12/10 02:07:44;;;;;;;9.07;2.10;;;;;;;5.02;100.00;92348.66;2114441;28;20027;-78
2023/12/10 02:08:45;;;;;;;9.30;1.67;;;;;;;4.91;100.00;92366.56;2105493;28;20564;-77
2023/12/10 02:09:46;;;;;;;10.10;1.70;;;;;;;4.80;100.00;92358.00;2097029;28;20776;-77
2023/12/10 02:10:47;;;;;;;8.38;1.58;;;;;;;4.84;100.00;92361.38;2105360;28;20035;-78
2023/12/10 02:11:48;;;;;;;8.55;2.10;;;;;;;4.71;100.00;92355.09;2114406;28;20019;-79
2023/12/10 02:12:52;;;;;;;10.38;2.00;;;;;;;4.60;100.00;92360.50;2114503;28;20031;-78
2023/12/10 02:13:52;;;;;;;11.60;2.03;;;;;;;4.68;100.00;92351.34;2108999;28;20024;-77
2023/12/10 02:14:54;;;;;;;12.35;2.70;;;;;;;4.75;100.00;92383.03;2110253;28;20106;-79
2023/12/10 02:15:55;;;;;;;9.32;2.45;;;;;;;4.81;100.00;92370.09;2112870;28;20026;-78
2023/12/10 02:16:56;;;;;;;7.10;1.77;;;;;;;4.75;100.00;92375.09;2114350;28;20525;-77
2023/12/10 02:17:57;;;;;;;8.32;2.13;;;;;;;4.69;100.00;92375.91;2105081;28;20028;-77
2023/12/10 02:18:58;;;;;;;10.25;2.20;;;;;;;4.89;100.00;92379.47;2098632;28;20016;-78
2023/12/10 02:19:59;;;;;;;8.48;1.73;;;;;;;4.98;100.00;92379.72;2112969;28;20110;-78
2023/12/10 02:21:00;;;;;;;11.40;1.70;;;;;;;4.98;100.00;92385.00;2114550;28;20452;-77
2023/12/10 02:22:03;;;;;;;11.63;1.85;;;;;;;4.86;100.00;92385.53;2096700;28;20155;-78
2023/12/10 02:24:52;;;;;;;;;;;;;;;4.28;100.00;92387.31;2147853;27;20861;-79
2023/12/10 02:25:53;;;;;;;6.53;1.20;;;;;;;4.36;100.00;92388.00;2130616;27;19915;-78
2023/12/10 02:26:55;;;;;;;8.93;1.75;;;;;;;4.27;100.00;92397.16;2120218;27;20035;-78
2023/12/10 02:28:02;;;;;;;14.10;1.63;;;;;;;4.29;100.00;92400.16;2123101;27;20098;-78
2023/12/10 02:29:04;;;;;;;10.77;2.30;;;;;;;4.20;100.00;92394.56;2130269;27;20026;-78
2023/12/10 02:30:06;;;;;;;9.90;2.15;;;;;;;4.23;100.00;92391.16;2112818;28;20118;-77
2023/12/10 02:31:08;;;;;;;12.77;2.00;;;;;;;4.22;100.00;92392.28;2124838;27;20031;-78
2023/12/10 02:32:09;;;;;;;10.38;1.60;;;;;;;4.28;100.00;92403.94;2121257;27;20664;-78
2023/12/10 02:33:10;;;;;;;10.73;1.73;;;;;;;4.27;100.00;92385.81;2121106;27;20406;-78
2023/12/10 02:34:10;;;;;;;12.18;2.30;;;;;;;4.24;100.00;92391.88;2129827;27;20019;-78
2023/12/10 02:35:11;;;;;;;7.10;1.60;;;;;;;4.34;100.00;92388.38;2129692;27;20027;-79
2023/12/10 02:36:13;;;;;;;7.47;1.38;;;;;;;4.39;100.00;92393.25;2138284;27;20015;-78
2023/12/10 02:37:14;;;;;;;11.25;1.70;;;;;;;4.24;100.00;92395.28;2147518;27;20022;-77
2023/12/10 02:38:20;;;;;;;10.70;2.22;;;;;;;4.28;100.00;92406.59;2147473;27;20022;-77
2023/12/10 02:39:21;;;;;;;12.40;1.90;;;;;;;4.16;100.00;92393.84;2138051;27;20078;-79
2023/12/10 02:40:22;;;;;;;11.65;1.95;;;;;;;4.11;100.00;92406.75;2119239;28;20027;-78
2023/12/10 02:41:23;;;;;;;12.95;1.77;;;;;;;4.08;100.00;92402.25;2127401;27;20083;-79
2023/12/10 02:42:24;;;;;;;8.93;1.75;;;;;;;4.07;100.00;92403.38;2147591;27;20053;-77
2023/12/10 02:43:25;;;;;;;7.88;1.65;;;;;;;4.30;100.00;92406.19;2142718;27;20038;-79
2023/12/10 02:44:26;;;;;;;9.73;1.60;;;;;;;4.11;100.00;92409.41;2126234;27;20045;-76
2023/12/10 02:45:27;;;;;;;10.50;1.63;;;;;;;4.23;100.00;92400.97;2121183;27;20046;-77
2023/12/10 02:46:28;;;;;;;11.93;2.35;;;;;;;4.16;100.00;92407.06;2134914;27;20081;-76
2023/12/10 02:47:29;;;;;;;13.13;1.63;;;;;;;4.31;100.00;92418.28;2121877;27;20031;-77
2023/12/10 02:48:30;;;;;;;7.38;2.03;;;;;;;4.29;100.00;92407.34;2127125;27;20031;-78
2023/12/10 02:49:31;;;;;;;12.05;2.05;;;;;;;4.28;100.00;92413.78;2115713;27;20114;-77
2023/12/10 02:50:32;;;;;;;10.73;1.63;;;;;;;4.18;100.00;92414.63;2117763;28;20028;-78
2023/12/10 02:51:33;;;;;;;11.48;1.90;;;;;;;4.19;100.00;92416.88;2132671;27;20532;-77
2023/12/10 02:52:37;;;;;;;5.47;1.30;;;;;;;4.09;100.00;92428.31;2138412;27;20100;-79
2023/12/10 02:53:38;;;;;;;10.68;1.48;;;;;;;4.33;100.00;92431.84;2133951;27;20023;-78
2023/12/10 02:54:39;;;;;;;12.05;2.13;;;;;;;4.52;100.00;92425.25;2120719;28;20023;-78
2023/12/10 02:55:40;;;;;;;9.38;1.73;;;;;;;4.43;100.00;92438.94;2122802;27;20027;-76
2023/12/10 02:56:41;;;;;;;9.95;1.80;;;;;;;4.61;100.00;92435.34;2135301;27;20015;-77
2023/12/10 02:57:42;;;;;;;8.88;1.75;;;;;;;4.54;100.00;92436.94;2132702;27;20035;-79
2023/12/10 02:58:43;;;;;;;9.25;1.77;;;;;;;4.44;100.00;92439.72;2139205;27;20109;-78
2023/12/10 02:59:44;;;;;;;7.70;1.50;;;;;;;4.49;100.00;92440.03;2139225;27;20059;-77
2023/12/10 03:00:45;;;;;;;11.27;2.08;;;;;;;4.63;100.00;92438.38;2132803;27;20038;-78
2023/12/10 03:01:46;;;;;;;14.65;1.85;;;;;;;4.72;100.00;92436.00;2116397;28;20065;-77
2023/12/10 03:02:46;;;;;;;11.20;1.75;;;;;;;4.64;100.00;92437.22;2112506;27;20024;-77
2023/12/10 03:03:47;;;;;;;8.43;1.70;;;;;;;4.49;100.00;92447.97;2129975;27;20027;-78
2023/12/10 03:04:48;;;;;;;8.88;1.70;;;;;;;4.57;100.00;92447.91;2142972;27;20053;-76
2023/12/10 03:05:49;;;;;;;8.10;1.40;;;;;;;4.79;100.00;92449.19;2144562;27;20056;-78
2023/12/10 03:06:50;;;;;;;8.30;1.70;;;;;;;4.57;100.00;92440.72;2137976;27;20101;-77
2023/12/10 03:07:52;;;;;;;8.00;1.48;;;;;;;4.63;100.00;92459.56;2129372;27;20073;-79
2023/12/10 03:08:53;;;;;;;8.43;1.40;;;;;;;4.70;100.00;92457.59;2129223;27;20026;-76
2023/12/10 03:09:54;;;;;;;7.38;1.50;;;;;;;4.61;100.00;92449.38;2138043;27;20093;-78
2023/12/10 03:10:55;;;;;;;10.85;2.13;;;;;;;4.66;100.00;92448.19;2131652;27;20490;-77
2023/12/10 03:11:56;;;;;;;9.32;1.38;;;;;;;4.66;100.00;92456.88;2138633;27;20094;-77
2023/12/10 03:12:57;;;;;;;10.00;2.03;;;;;;;4.61;100.00;92440.66;2129444;27;20348;-76
2023/12/10 03:13:58;;;;;;;7.25;1.58;;;;;;;4.71;100.00;92435.25;2114323;28;20679;-77
2023/12/10 03:14:59;;;;;;;13.00;2.05;;;;;;;4.59;100.00;92442.97;2113984;27;20034;-78
2023/12/10 03:15:59;;;;;;;9.07;1.52;;;;;;;4.46;100.00;92440.81;2129443;27;20114;-78
2023/12/10 03:17:00;;;;;;;12.90;2.20;;;;;;;4.41;100.00;92448.44;2130542;27;20019;-79
2023/12/10 03:18:01;;;;;;;5.78;1.40;;;;;;;4.36;100.00;92433.72;2116181;27;20142;-78
2023/12/10 03:19:03;;;;;;;11.07;1.67;;;;;;;4.22;100.00;92444.44;2118969;27;20024;-77
2023/12/10 03:20:05;;;;;;;6.07;1.70;;;;;;;4.31;100.00;92450.03;2124725;27;20018;-77
2023/12/10 03:21:06;;;;;;;9.18;1.67;;;;;;;4.23;100.00;92454.63;2121338;27;20023;-77
2023/12/10 03:22:07;;;;;;;14.18;1.98;;;;;;;4.20;100.00;92449.38;2121027;28;20019;-77
2023/12/10 03:23:09;;;;;;;8.00;2.10;;;;;;;4.17;100.00;92450.13;2112366;28;20024;-78
2023/12/10 03:24:10;;;;;;;11.60;1.90;;;;;;;4.34;100.00;92448.47;2111683;28;20476;-77
2023/12/10 03:25:12;;;;;;;12.05;1.70;;;;;;;4.33;100.00;92439.03;2112099;28;20032;-78
2023/12/10 03:26:13;;;;;;;8.05;1.75;;;;;;;4.29;100.00;92442.47;2111298;28;20026;-77
2023/12/10 03:27:14;;;;;;;10.98;1.77;;;;;;;4.16;100.00;92454.69;2105962;28;20459;-77
2023/12/10 03:28:15;;;;;;;6.25;1.60;;;;;;;4.22;100.00;92447.09;2087222;28;20021;-77
2023/12/10 03:29:16;;;;;;;7.38;1.70;;;;;;;4.18;100.00;92452.41;2095591;28;20025;-78
2023/12/10 03:30:17;;;;;;;7.60;1.33;;;;;;;4.12;100.00;92442.63;2104437;28;20052;-76
2023/12/10 03:31:18;;;;;;;10.88;1.88;;;;;;;4.42;100.00;92461.25;2094900;28;20511;-78
2023/12/10 03:32:20;;;;;;;8.23;1.63;;;;;;;4.39;100.00;92438.25;2095472;28;20079;-78
2023/12/10 03:33:21;;;;;;;8.13;1.63;;;;;;;4.35;100.00;92455.28;2103927;28;20056;-78
2023/12/10 03:34:24;;;;;;;12.55;2.28;;;;;;;4.23;100.00;92453.88;2095530;28;20027;-79
2023/12/10 03:35:25;;;;;;;9.40;1.50;;;;;;;4.27;100.00;92449.31;2107728;28;20027;-78
2023/12/10 03:36:26;;;;;;;11.23;1.60;;;;;;;4.16;100.00;92461.88;2107746;28;20035;-78
2023/12/10 03:37:27;;;;;;;11.15;1.95;;;;;;;4.31;100.00;92455.31;2106522;28;20028;-77
2023/12/10 03:38:30;;;;;;;8.52;1.50;;;;;;;4.27;100.00;92468.56;2106303;28;20027;-77
2023/12/10 03:39:30;;;;;;;8.27;1.30;;;;;;;4.22;100.00;92470.91;2107224;28;20028;-77
2023/12/10 03:40:31;;;;;;;8.13;1.90;;;;;;;4.26;100.00;92461.78;2106579;28;20101;-78
2023/12/10 03:41:32;;;;;;;9.38;1.50;;;;;;;4.41;100.00;92473.00;2107140;28;20070;-76
2023/12/10 03:42:33;;;;;;;5.97;1.65;;;;;;;4.45;100.00;92465.78;2098014;28;20397;-77
2023/12/10 03:43:34;;;;;;;9.68;1.92;;;;;;;4.31;100.00;92473.84;2097237;28;20058;-78
2023/12/10 03:44:35;;;;;;;8.73;2.10;;;;;;;4.37;100.00;92472.25;2095194;28;20087;-77
2023/12/10 03:45:36;;;;;;;8.95;1.65;;;;;;;4.55;100.00;92490.63;2093498;28;20025;-77
2023/12/10 03:46:37;;;;;;;11.60;1.75;;;;;;;4.55;100.00;92491.38;2098542;28;20024;-77
2023/12/10 03:47:39;;;;;;;9.25;1.73;;;;;;;4.54;100.00;92495.16;2106665;28;20475;-77
2023/12/10 03:48:40;;;;;;;9.93;1.80;;;;;;;4.54;100.00;92483.84;2095749;28;20024;-78
2023/12/10 03:49:41;;;;;;;12.82;2.03;;;;;;;4.34;100.00;92496.09;2091238;28;20071;-77
2023/12/10 03:50:41;;;;;;;8.75;1.80;;;;;;;4.47;100.00;92497.13;2101406;28;20108;-77
2023/12/10 03:51:42;;;;;;;8.00;1.52;;;;;;;4.48;100.00;92493.34;2102767;28;20050;-77
2023/12/10 03:52:43;;;;;;;8.00;1.30;;;;;;;4.46;100.00;92493.72;2096217;28;20046;-78
2023/12/10 03:53:44;;;;;;;10.30;1.70;;;;;;;4.46;100.00;92487.69;2102833;28;20052;-77
2023/12/10 03:54:45;;;;;;;8.10;1.40;;;;;;;4.31;100.00;92483.69;2107079;28;20670;-77
2023/12/10 03:55:46;;;;;;;12.93;1.67;;;;;;;4.44;100.00;92495.28;2101035;28;20381;-77
2023/12/10 03:56:47;;;;;;;12.50;2.75;;;;;;;4.59;100.00;92499.28;2099138;28;20453;-79
2023/12/10 03:57:49;;;;;;;6.47;1.35;;;;;;;4.47;100.00;92487.28;2092085;28;20159;-77
2023/12/10 03:58:49;;;;;;;13.63;1.63;;;;;;;4.48;100.00;92501.28;2089866;28;20053;-78
2023/12/10 03:59:50;;;;;;;11.52;1.80;;;;;;;4.58;100.00;92503.06;2101001;28;20025;-77
2023/12/10 04:00:51;;;;;;;9.60;1.55;;;;;;;4.76;100.00;92510.84;2114730;28;20051;-78
2023/12/10 04:01:52;;;;;;;9.60;1.75;;;;;;;4.69;100.00;92495.78;2114858;28;20019;-77
2023/12/10 04:02:59;;;;;;;8.93;1.80;;;;;;;4.63;100.00;92496.59;2114880;28;20035;-77
2023/12/10 04:04:01;;;;;;;11.52;1.77;;;;;;;4.68;100.00;92493.53;2114794;28;20035;-79
2023/12/10 04:05:02;;;;;;;10.00;1.85;;;;;;;4.57;100.00;92491.00;2114829;28;20028;-77
2023/12/10 04:06:03;;;;;;;10.00;1.73;;;;;;;4.54;100.00;92502.34;2106519;28;20551;-76
2023/12/10 04:07:04;;;;;;;4.80;1.70;;;;;;;4.51;100.00;92501.25;2106849;28;20020;-77
2023/12/10 04:08:05;;;;;;;11.52;1.75;;;;;;;4.40;100.00;92500.59;2106866;28;20024;-77
2023/12/10 04:09:08;;;;;;;10.98;2.10;;;;;;;4.37;100.00;92514.59;2106912;28;20061;-78
2023/12/10 04:10:09;;;;;;;13.98;2.03;;;;;;;4.53;100.00;92501.63;2106165;28;20023;-77
2023/12/10 04:11:10;;;;;;;7.07;1.60;;;;;;;4.63;100.00;92507.94;2106214;28;20028;-78
2023/12/10 04:12:11;;;;;;;11.52;2.05;;;;;;;4.66;100.00;92512.47;2106473;28;20016;-77
2023/12/10 04:13:12;;;;;;;11.80;2.20;;;;;;;4.68;100.00;92522.66;2111374;28;20031;-78
2023/12/10 04:14:13;;;;;;;10.77;2.03;;;;;;;4.52;100.00;92520.50;2101552;28;20021;-79
2023/12/10 04:15:14;;;;;;;9.43;1.52;;;;;;;4.36;100.00;92523.69;2105830;28;20050;-76
2023/12/10 04:16:29;;;;;;;13.07;2.17;;;;;;;4.45;100.00;92523.97;2097937;28;20135;-78
2023/12/10 04:17:30;;;;;;;6.80;1.58;;;;;;;4.48;100.00;92528.50;2094207;28;20124;-77
2023/12/10 04:18:31;;;;;;;8.63;1.92;;;;;;;4.52;100.00;92525.81;2090738;28;20029;-79
2023/12/10 04:19:32;;;;;;;8.65;1.50;;;;;;;4.52;100.00;92529.22;2103792;28;20024;-78
2023/12/10 04:20:33;;;;;;;8.40;1.90;;;;;;;4.45;100.00;92523.97;2106176;28;20027;-76
2023/12/10 04:21:34;;;;;;;9.60;1.70;;;;;;;4.53;100.00;92528.06;2105837;28;20055;-78
2023/12/10 04:22:35;;;;;;;6.40;1.30;;;;;;;4.56;100.00;92526.53;2106350;28;20020;-77
2023/12/10 04:23:38;;;;;;;13.32;2.15;;;;;;;4.58;100.00;92529.53;2106082;28;20077;-77
2023/12/10 04:24:39;;;;;;;7.75;2.00;;;;;;;4.61;100.00;92520.06;2120865;27;20055;-76
2023/12/10 04:25:40;;;;;;;6.88;1.40;;;;;;;4.47;100.00;92537.56;2114046;27;20026;-78
2023/12/10 04:26:41;;;;;;;11.20;1.45;;;;;;;4.64;100.00;92532.50;2108011;28;20020;-77
2023/12/10 04:27:42;;;;;;;11.70;2.00;;;;;;;4.63;100.00;92528.38;2110424;28;20074;-78
2023/12/10 04:28:43;;;;;;;9.80;1.98;;;;;;;4.65;100.00;92541.94;2114978;27;20124;-78
2023/12/10 04:29:44;;;;;;;7.07;1.42;;;;;;;4.52;100.00;92528.44;2123040;27;20110;-78
2023/12/10 04:30:45;;;;;;;9.05;1.42;;;;;;;4.56;100.00;92531.81;2123110;27;20027;-77
2023/12/10 04:31:46;;;;;;;10.77;1.48;;;;;;;4.55;100.00;92544.31;2108928;28;20035;-75
2023/12/10 04:32:47;;;;;;;11.30;1.30;;;;;;;4.59;100.00;92520.47;2098060;28;20035;-78
2023/12/10 04:33:48;;;;;;;6.80;1.40;;;;;;;4.76;100.00;92534.69;2114768;28;20514;-78
2023/12/10 04:34:49;;;;;;;11.00;1.85;;;;;;;4.83;100.00;92521.38;2115177;28;20024;-78
2023/12/10 04:35:50;;;;;;;9.40;1.63;;;;;;;4.79;100.00;92528.59;2115148;28;20023;-78
2023/12/10 04:36:51;;;;;;;4.57;1.25;;;;;;;4.73;100.00;92530.91;2115058;28;20085;-76
2023/12/10 04:37:52;;;;;;;8.15;1.52;;;;;;;4.59;100.00;92531.03;2115308;28;20387;-77
2023/12/10 04:38:53;;;;;;;10.65;1.88;;;;;;;4.51;100.00;92533.00;2114896;28;20024;-77
2023/12/10 04:39:54;;;;;;;6.50;1.20;;;;;;;4.37;100.00;92533.13;2115280;28;20050;-77
2023/12/10 04:40:55;;;;;;;8.43;1.90;;;;;;;4.63;100.00;92536.31;2114555;28;20034;-77
2023/12/10 04:41:57;;;;;;;10.98;1.65;;;;;;;4.80;100.00;92538.03;2117072;27;20027;-77
2023/12/10 04:42:58;;;;;;;10.68;1.63;;;;;;;4.68;100.00;92546.47;2116299;27;20047;-77
2023/12/10 04:43:59;;;;;;;8.88;2.22;;;;;;;4.52;100.00;92549.63;2111805;28;20404;-76
2023/12/10 04:45:00;;;;;;;8.30;1.65;;;;;;;4.32;100.00;92549.41;2114555;28;20031;-77
2023/12/10 04:46:01;;;;;;;9.63;1.70;;;;;;;4.33;100.00;92542.22;2110958;28;20024;-77
2023/12/10 04:47:02;;;;;;;8.50;1.67;;;;;;;4.52;100.00;92555.69;2107403;28;20024;-77
2023/12/10 04:48:03;;;;;;;14.60;1.98;;;;;;;4.34;100.00;92555.06;2114190;28;20019;-77
2023/12/10 04:49:04;;;;;;;12.45;1.80;;;;;;;4.53;100.00;92553.78;2114507;28;20016;-78
2023/12/10 04:50:05;;;;;;;9.98;1.90;;;;;;;4.50;100.00;92563.25;2115772;27;20442;-78
2023/12/10 04:51:06;;;;;;;4.97;1.27;;;;;;;4.30;100.00;92554.31;2114093;28;20023;-77
2023/12/10 04:52:07;;;;;;;7.18;1.83;;;;;;;4.14;100.00;92551.44;2105805;28;20055;-76
2023/12/10 04:53:08;;;;;;;8.77;1.60;;;;;;;4.39;100.00;92553.88;2105862;28;20553;-78
2023/12/10 04:54:09;;;;;;;10.05;1.85;;;;;;;4.20;100.00;92563.84;2122091;27;20428;-78
2023/12/10 04:55:10;;;;;;;10.00;1.85;;;;;;;4.29;100.00;92556.22;2114526;28;20027;-77
2023/12/10 04:56:11;;;;;;;11.02;1.88;;;;;;;4.39;100.00;92562.59;2106784;28;20058;-78
2023/12/10 04:57:14;;;;;;;11.05;2.10;;;;;;;4.31;100.00;92558.50;2113591;28;20039;-77
2023/12/10 04:58:15;;;;;;;9.50;1.92;;;;;;;4.35;100.00;92561.13;2105895;28;20397;-78
2023/12/10 04:59:17;;;;;;;9.25;2.20;;;;;;;4.26;100.00;92564.22;2097481;28;20039;-75
2023/12/10 05:00:19;;;;;;;8.30;1.90;;;;;;;4.16;100.00;92570.31;2090043;28;20103;-76
2023/12/10 05:01:19;;;;;;;6.13;1.33;;;;;;;4.01;100.00;92565.09;2115625;27;20027;-76
2023/12/10 05:02:20;;;;;;;6.63;1.45;;;;;;;4.41;100.00;92573.53;2129348;27;20079;-76
2023/12/10 05:03:21;;;;;;;8.50;1.63;;;;;;;4.27;100.00;92563.06;2116268;27;20023;-77
2023/12/10 05:04:22;;;;;;;9.15;1.73;;;;;;;4.18;100.00;92566.13;2118095;27;20102;-78
2023/12/10 05:05:23;;;;;;;9.38;1.60;;;;;;;4.26;100.00;92564.22;2105564;28;20023;-77
2023/12/10 05:06:24;;;;;;;8.23;1.80;;;;;;;4.10;100.00;92559.38;2113924;28;20533;-76
2023/12/10 05:07:25;;;;;;;10.65;2.28;;;;;;;4.35;100.00;92564.50;2115437;27;20521;-76
2023/12/10 05:08:26;;;;;;;11.10;2.00;;;;;;;4.42;100.00;92559.16;2117409;27;20031;-77
2023/12/10 05:09:27;;;;;;;9.43;1.98;;;;;;;4.38;100.00;92560.31;2123076;27;20023;-79
2023/12/10 05:10:28;;;;;;;9.40;1.50;;;;;;;4.27;100.00;92555.13;2123306;27;20475;-77
2023/12/10 05:11:29;;;;;;;6.25;1.65;;;;;;;4.56;100.00;92574.16;2115606;27;20032;-77
2023/12/10 05:12:30;;;;;;;10.90;1.80;;;;;;;4.28;100.00;92575.13;2116567;27;20046;-76